McPherson, Kansas
Current Conditions -  °F | °C
As of 6:52 PM on Friday 19 Dec 2014 (Local Time) from KHUT Reporting Station
Haze Haze  
Wind Chill: 32°   Ceiling: 1700
Heat Index: 37°   Visibility: 6mi
Dew Point: 34°   Wind: 6mph
Humidity: 89%   Direction: 160°SSE
Pressure: 30.16"   Gusts: NA
Location:  38.37°N, 97.67°W
Report Text: KHUT 200052Z 16005KT 6SM BR OVC017 03/01 A3016 RMK AO2 SLP217 T00280011
Loading
Personal Weather Stations






























Interactive Weather Map New forecast layout! Learn more

10-Day Weather Forecast

Advertisements
Track Severe Weather on mobile